sensor_id;sensor_type;location;lat;lon;timestamp;temperature;humidity
38854;DHT22;24606;51.992;4.198;2022-12-10T00:04:50;16.90;54.50
38854;DHT22;24606;51.992;4.198;2022-12-10T00:09:52;16.90;54.50
38854;DHT22;24606;51.992;4.198;2022-12-10T00:14:54;16.90;54.50
38854;DHT22;24606;51.992;4.198;2022-12-10T00:19:57;16.80;54.50
38854;DHT22;24606;51.992;4.198;2022-12-10T00:24:59;16.80;54.40
38854;DHT22;24606;51.992;4.198;2022-12-10T00:30:01;16.70;54.70
38854;DHT22;24606;51.992;4.198;2022-12-10T00:35:06;16.60;54.80
38854;DHT22;24606;51.992;4.198;2022-12-10T00:40:09;16.20;53.20
38854;DHT22;24606;51.992;4.198;2022-12-10T00:45:11;16.50;54.70
38854;DHT22;24606;51.992;4.198;2022-12-10T00:50:14;16.10;56.00
38854;DHT22;24606;51.992;4.198;2022-12-10T00:55:16;16.10;55.00
38854;DHT22;24606;51.992;4.198;2022-12-10T01:00:19;15.50;56.90
38854;DHT22;24606;51.992;4.198;2022-12-10T01:05:22;16.20;55.30
38854;DHT22;24606;51.992;4.198;2022-12-10T01:10:24;16.60;54.30
38854;DHT22;24606;51.992;4.198;2022-12-10T01:15:26;16.60;54.40
38854;DHT22;24606;51.992;4.198;2022-12-10T01:20:29;16.60;54.40
38854;DHT22;24606;51.992;4.198;2022-12-10T01:25:31;16.50;54.50
38854;DHT22;24606;51.992;4.198;2022-12-10T01:30:33;16.30;54.80
38854;DHT22;24606;51.992;4.198;2022-12-10T01:35:37;16.10;55.60
38854;DHT22;24606;51.992;4.198;2022-12-10T01:40:39;16.50;54.50
38854;DHT22;24606;51.992;4.198;2022-12-10T01:45:41;16.50;54.20
38854;DHT22;24606;51.992;4.198;2022-12-10T01:50:44;16.50;54.40
38854;DHT22;24606;51.992;4.198;2022-12-10T01:55:48;16.50;54.30
38854;DHT22;24606;51.992;4.198;2022-12-10T02:00:58;16.50;54.40
38854;DHT22;24606;51.992;4.198;2022-12-10T02:06:10;16.50;54.30
38854;DHT22;24606;51.992;4.198;2022-12-10T02:11:19;16.00;52.50
38854;DHT22;24606;51.992;4.198;2022-12-10T02:16:32;16.20;54.80
38854;DHT22;24606;51.992;4.198;2022-12-10T02:21:38;16.40;54.50
38854;DHT22;24606;51.992;4.198;2022-12-10T02:26:44;16.40;54.20
38854;DHT22;24606;51.992;4.198;2022-12-10T02:31:52;16.50;54.10
38854;DHT22;24606;51.992;4.198;2022-12-10T02:36:55;16.50;54.10
38854;DHT22;24606;51.992;4.198;2022-12-10T02:42:00;16.40;54.20
38854;DHT22;24606;51.992;4.198;2022-12-10T02:47:05;16.40;54.10
38854;DHT22;24606;51.992;4.198;2022-12-10T02:52:09;16.50;53.90
38854;DHT22;24606;51.992;4.198;2022-12-10T02:57:32;16.40;54.10
38854;DHT22;24606;51.992;4.198;2022-12-10T03:02:46;16.30;54.20
38854;DHT22;24606;51.992;4.198;2022-12-10T03:07:56;16.40;53.90
38854;DHT22;24606;51.992;4.198;2022-12-10T03:13:03;16.40;54.00
38854;DHT22;24606;51.992;4.198;2022-12-10T03:18:10;16.30;54.10
38854;DHT22;24606;51.992;4.198;2022-12-10T03:23:16;16.30;54.00
38854;DHT22;24606;51.992;4.198;2022-12-10T03:28:21;16.10;54.50
38854;DHT22;24606;51.992;4.198;2022-12-10T03:33:25;16.20;54.40
38854;DHT22;24606;51.992;4.198;2022-12-10T03:38:27;15.40;55.60
38854;DHT22;24606;51.992;4.198;2022-12-10T03:43:29;14.50;57.90
38854;DHT22;24606;51.992;4.198;2022-12-10T03:48:33;15.00;53.90
38854;DHT22;24606;51.992;4.198;2022-12-10T03:53:34;15.50;55.90
38854;DHT22;24606;51.992;4.198;2022-12-10T03:58:36;15.70;55.20
38854;DHT22;24606;51.992;4.198;2022-12-10T04:03:41;15.60;55.50
38854;DHT22;24606;51.992;4.198;2022-12-10T04:08:43;16.20;54.80
38854;DHT22;24606;51.992;4.198;2022-12-10T04:13:45;16.10;54.30
38854;DHT22;24606;51.992;4.198;2022-12-10T04:19:08;15.80;52.20
38854;DHT22;24606;51.992;4.198;2022-12-10T04:24:11;16.00;54.20
38854;DHT22;24606;51.992;4.198;2022-12-10T04:29:31;16.20;53.80
38854;DHT22;24606;51.992;4.198;2022-12-10T04:34:34;16.00;54.80
38854;DHT22;24606;51.992;4.198;2022-12-10T04:39:36;16.20;53.80
38854;DHT22;24606;51.992;4.198;2022-12-10T04:44:38;16.10;54.60
38854;DHT22;24606;51.992;4.198;2022-12-10T04:49:42;16.20;53.80
38854;DHT22;24606;51.992;4.198;2022-12-10T04:54:44;16.20;53.80
38854;DHT22;24606;51.992;4.198;2022-12-10T04:59:46;16.20;53.90
38854;DHT22;24606;51.992;4.198;2022-12-10T05:04:49;16.10;53.70
38854;DHT22;24606;51.992;4.198;2022-12-10T05:09:51;16.20;53.70
38854;DHT22;24606;51.992;4.198;2022-12-10T05:14:53;16.20;53.60
38854;DHT22;24606;51.992;4.198;2022-12-10T05:19:56;16.30;53.40
38854;DHT22;24606;51.992;4.198;2022-12-10T05:24:58;16.30;53.60
38854;DHT22;24606;51.992;4.198;2022-12-10T05:30:00;16.50;53.30
38854;DHT22;24606;51.992;4.198;2022-12-10T05:35:03;16.70;52.90
38854;DHT22;24606;51.992;4.198;2022-12-10T05:40:07;17.00;52.60
38854;DHT22;24606;51.992;4.198;2022-12-10T05:45:09;17.10;52.60
38854;DHT22;24606;51.992;4.198;2022-12-10T05:50:12;17.20;52.50
38854;DHT22;24606;51.992;4.198;2022-12-10T05:55:14;17.30;52.50
38854;DHT22;24606;51.992;4.198;2022-12-10T06:00:17;17.40;52.40
38854;DHT22;24606;51.992;4.198;2022-12-10T06:05:20;17.40;52.40
38854;DHT22;24606;51.992;4.198;2022-12-10T06:10:22;17.50;52.40
38854;DHT22;24606;51.992;4.198;2022-12-10T06:15:24;17.50;52.40
38854;DHT22;24606;51.992;4.198;2022-12-10T06:20:27;17.50;52.50
38854;DHT22;24606;51.992;4.198;2022-12-10T06:25:29;17.60;52.40
38854;DHT22;24606;51.992;4.198;2022-12-10T06:30:31;17.60;52.40
38854;DHT22;24606;51.992;4.198;2022-12-10T06:35:34;17.60;52.50
38854;DHT22;24606;51.992;4.198;2022-12-10T06:40:39;17.50;52.40
38854;DHT22;24606;51.992;4.198;2022-12-10T06:45:41;17.50;52.60
38854;DHT22;24606;51.992;4.198;2022-12-10T06:50:45;17.50;52.60
38854;DHT22;24606;51.992;4.198;2022-12-10T06:55:47;17.50;52.60
38854;DHT22;24606;51.992;4.198;2022-12-10T07:00:48;17.40;52.70
38854;DHT22;24606;51.992;4.198;2022-12-10T07:15:26;17.40;52.20
38854;DHT22;24606;51.992;4.198;2022-12-10T07:20:29;17.40;52.80
38854;DHT22;24606;51.992;4.198;2022-12-10T07:25:32;17.40;53.20
38854;DHT22;24606;51.992;4.198;2022-12-10T07:30:35;17.40;52.60
38854;DHT22;24606;51.992;4.198;2022-12-10T07:35:38;17.40;52.60
38854;DHT22;24606;51.992;4.198;2022-12-10T07:40:40;17.40;52.70
38854;DHT22;24606;51.992;4.198;2022-12-10T07:45:43;17.30;52.70
38854;DHT22;24606;51.992;4.198;2022-12-10T07:50:45;17.30;52.80
38854;DHT22;24606;51.992;4.198;2022-12-10T07:55:47;17.30;52.70
38854;DHT22;24606;51.992;4.198;2022-12-10T08:00:50;17.20;52.80
38854;DHT22;24606;51.992;4.198;2022-12-10T08:06:01;17.30;52.80
38854;DHT22;24606;51.992;4.198;2022-12-10T08:11:03;17.30;52.70
38854;DHT22;24606;51.992;4.198;2022-12-10T08:16:11;17.40;52.60
38854;DHT22;24606;51.992;4.198;2022-12-10T08:21:14;17.40;52.80
38854;DHT22;24606;51.992;4.198;2022-12-10T08:26:19;17.30;52.80
38854;DHT22;24606;51.992;4.198;2022-12-10T08:31:23;17.20;52.80
38854;DHT22;24606;51.992;4.198;2022-12-10T08:36:25;17.20;53.00
38854;DHT22;24606;51.992;4.198;2022-12-10T08:41:27;17.20;53.10
38854;DHT22;24606;51.992;4.198;2022-12-10T08:46:30;17.10;53.20
38854;DHT22;24606;51.992;4.198;2022-12-10T08:51:32;17.10;53.20
38854;DHT22;24606;51.992;4.198;2022-12-10T08:56:35;17.10;53.40
38854;DHT22;24606;51.992;4.198;2022-12-10T09:01:38;17.10;53.60
38854;DHT22;24606;51.992;4.198;2022-12-10T09:06:40;16.90;54.10
38854;DHT22;24606;51.992;4.198;2022-12-10T09:11:43;16.90;54.00
38854;DHT22;24606;51.992;4.198;2022-12-10T09:16:48;17.10;53.60
38854;DHT22;24606;51.992;4.198;2022-12-10T09:21:50;17.20;53.40
38854;DHT22;24606;51.992;4.198;2022-12-10T09:26:52;17.20;53.40
38854;DHT22;24606;51.992;4.198;2022-12-10T09:31:55;17.30;53.30
38854;DHT22;24606;51.992;4.198;2022-12-10T09:36:57;17.60;53.00
38854;DHT22;24606;51.992;4.198;2022-12-10T09:42:10;17.70;53.00
38854;DHT22;24606;51.992;4.198;2022-12-10T09:47:15;17.70;53.00
38854;DHT22;24606;51.992;4.198;2022-12-10T09:52:20;17.70;53.10
38854;DHT22;24606;51.992;4.198;2022-12-10T09:57:25;17.70;53.40
38854;DHT22;24606;51.992;4.198;2022-12-10T10:02:32;17.60;53.50
38854;DHT22;24606;51.992;4.198;2022-12-10T10:07:36;17.50;53.70
38854;DHT22;24606;51.992;4.198;2022-12-10T10:12:40;17.50;53.60
38854;DHT22;24606;51.992;4.198;2022-12-10T10:17:44;17.60;53.50
38854;DHT22;24606;51.992;4.198;2022-12-10T10:22:47;17.50;53.90
38854;DHT22;24606;51.992;4.198;2022-12-10T10:27:49;17.70;53.80
38854;DHT22;24606;51.992;4.198;2022-12-10T10:32:54;17.70;54.00
38854;DHT22;24606;51.992;4.198;2022-12-10T10:37:58;17.60;54.10
38854;DHT22;24606;51.992;4.198;2022-12-10T10:43:01;17.60;54.80
38854;DHT22;24606;51.992;4.198;2022-12-10T10:48:05;17.70;55.00
38854;DHT22;24606;51.992;4.198;2022-12-10T10:53:26;17.70;54.90
38854;DHT22;24606;51.992;4.198;2022-12-10T10:58:29;17.60;54.90
38854;DHT22;24606;51.992;4.198;2022-12-10T11:03:35;17.70;54.80
38854;DHT22;24606;51.992;4.198;2022-12-10T11:08:38;17.50;55.10
38854;DHT22;24606;51.992;4.198;2022-12-10T11:13:40;17.60;55.10
38854;DHT22;24606;51.992;4.198;2022-12-10T11:18:52;17.50;54.70
38854;DHT22;24606;51.992;4.198;2022-12-10T11:23:56;17.60;55.00
38854;DHT22;24606;51.992;4.198;2022-12-10T11:29:08;17.60;54.90
38854;DHT22;24606;51.992;4.198;2022-12-10T11:34:19;17.60;55.00
38854;DHT22;24606;51.992;4.198;2022-12-10T11:39:41;17.50;55.00
38854;DHT22;24606;51.992;4.198;2022-12-10T11:44:51;17.40;55.10
38854;DHT22;24606;51.992;4.198;2022-12-10T11:50:07;16.70;56.50
38854;DHT22;24606;51.992;4.198;2022-12-10T11:55:23;17.20;55.70
38854;DHT22;24606;51.992;4.198;2022-12-10T12:00:30;17.30;55.40
38854;DHT22;24606;51.992;4.198;2022-12-10T12:05:52;17.30;55.30
38854;DHT22;24606;51.992;4.198;2022-12-10T12:11:08;17.30;55.40
38854;DHT22;24606;51.992;4.198;2022-12-10T12:16:19;17.40;55.40
38854;DHT22;24606;51.992;4.198;2022-12-10T12:21:25;17.30;55.40
38854;DHT22;24606;51.992;4.198;2022-12-10T12:26:30;17.20;55.60
38854;DHT22;24606;51.992;4.198;2022-12-10T12:31:35;17.30;55.40
38854;DHT22;24606;51.992;4.198;2022-12-10T12:36:39;17.30;55.40
38854;DHT22;24606;51.992;4.198;2022-12-10T12:41:45;17.30;55.40
38854;DHT22;24606;51.992;4.198;2022-12-10T12:46:50;17.10;55.80
38854;DHT22;24606;51.992;4.198;2022-12-10T12:52:00;14.40;52.90
38854;DHT22;24606;51.992;4.198;2022-12-10T12:57:06;15.90;57.80
38854;DHT22;24606;51.992;4.198;2022-12-10T13:02:21;13.60;65.80
38854;DHT22;24606;51.992;4.198;2022-12-10T13:07:33;11.80;71.90
38854;DHT22;24606;51.992;4.198;2022-12-10T13:12:46;12.80;76.80
38854;DHT22;24606;51.992;4.198;2022-12-10T13:18:21;16.10;60.40
38854;DHT22;24606;51.992;4.198;2022-12-10T13:23:33;15.80;58.70
38854;DHT22;24606;51.992;4.198;2022-12-10T13:28:49;16.20;60.00
38854;DHT22;24606;51.992;4.198;2022-12-10T13:34:03;16.80;58.30
38854;DHT22;24606;51.992;4.198;2022-12-10T13:39:21;17.20;57.20
38854;DHT22;24606;51.992;4.198;2022-12-10T13:44:36;17.30;56.80
38854;DHT22;24606;51.992;4.198;2022-12-10T13:49:47;17.40;56.60
38854;DHT22;24606;51.992;4.198;2022-12-10T13:55:08;17.40;56.60
38854;DHT22;24606;51.992;4.198;2022-12-10T14:00:19;17.50;56.40
38854;DHT22;24606;51.992;4.198;2022-12-10T14:05:32;17.40;56.40
38854;DHT22;24606;51.992;4.198;2022-12-10T14:10:38;17.40;56.50
38854;DHT22;24606;51.992;4.198;2022-12-10T14:15:50;17.50;56.20
38854;DHT22;24606;51.992;4.198;2022-12-10T14:20:53;17.50;56.10
38854;DHT22;24606;51.992;4.198;2022-12-10T14:25:58;17.50;56.10
38854;DHT22;24606;51.992;4.198;2022-12-10T14:31:00;17.50;56.10
38854;DHT22;24606;51.992;4.198;2022-12-10T14:36:03;17.60;56.00
38854;DHT22;24606;51.992;4.198;2022-12-10T14:41:06;17.50;56.00
38854;DHT22;24606;51.992;4.198;2022-12-10T14:46:14;17.60;55.90
38854;DHT22;24606;51.992;4.198;2022-12-10T14:51:20;17.60;55.90
38854;DHT22;24606;51.992;4.198;2022-12-10T14:56:26;17.60;56.00
38854;DHT22;24606;51.992;4.198;2022-12-10T15:01:33;17.50;55.90
38854;DHT22;24606;51.992;4.198;2022-12-10T15:06:36;17.60;56.00
38854;DHT22;24606;51.992;4.198;2022-12-10T15:11:39;17.60;56.10
38854;DHT22;24606;51.992;4.198;2022-12-10T15:16:43;17.60;56.10
38854;DHT22;24606;51.992;4.198;2022-12-10T15:21:47;17.50;56.20
38854;DHT22;24606;51.992;4.198;2022-12-10T15:26:50;17.50;56.20
38854;DHT22;24606;51.992;4.198;2022-12-10T15:31:55;17.50;56.30
38854;DHT22;24606;51.992;4.198;2022-12-10T15:37:02;16.80;54.20
38854;DHT22;24606;51.992;4.198;2022-12-10T15:42:06;15.20;60.60
38854;DHT22;24606;51.992;4.198;2022-12-10T15:47:12;16.40;59.70
38854;DHT22;24606;51.992;4.198;2022-12-10T15:52:18;16.10;55.30
38854;DHT22;24606;51.992;4.198;2022-12-10T15:57:23;17.60;58.10
38854;DHT22;24606;51.992;4.198;2022-12-10T16:02:32;17.40;61.70
38854;DHT22;24606;51.992;4.198;2022-12-10T16:07:35;18.00;58.30
38854;DHT22;24606;51.992;4.198;2022-12-10T16:12:39;18.90;58.00
38854;DHT22;24606;51.992;4.198;2022-12-10T16:17:41;19.40;60.60
38854;DHT22;24606;51.992;4.198;2022-12-10T16:22:43;18.60;55.80
38854;DHT22;24606;51.992;4.198;2022-12-10T16:27:46;18.30;56.30
38854;DHT22;24606;51.992;4.198;2022-12-10T16:32:49;18.10;56.70
38854;DHT22;24606;51.992;4.198;2022-12-10T16:37:51;18.00;57.00
38854;DHT22;24606;51.992;4.198;2022-12-10T16:42:56;17.90;57.40
38854;DHT22;24606;51.992;4.198;2022-12-10T16:47:58;17.90;57.60
38854;DHT22;24606;51.992;4.198;2022-12-10T16:53:03;17.80;57.60
38854;DHT22;24606;51.992;4.198;2022-12-10T16:58:08;17.80;57.80
38854;DHT22;24606;51.992;4.198;2022-12-10T17:03:11;17.80;57.80
38854;DHT22;24606;51.992;4.198;2022-12-10T17:08:23;17.80;57.90
38854;DHT22;24606;51.992;4.198;2022-12-10T17:13:26;17.80;57.80
38854;DHT22;24606;51.992;4.198;2022-12-10T17:18:30;17.60;57.90
38854;DHT22;24606;51.992;4.198;2022-12-10T17:23:33;17.50;58.10
38854;DHT22;24606;51.992;4.198;2022-12-10T17:28:36;17.50;57.80
38854;DHT22;24606;51.992;4.198;2022-12-10T17:33:38;17.50;58.40
38854;DHT22;24606;51.992;4.198;2022-12-10T17:38:41;17.50;57.70
38854;DHT22;24606;51.992;4.198;2022-12-10T17:43:44;17.50;57.70
38854;DHT22;24606;51.992;4.198;2022-12-10T17:48:48;17.40;57.50
38854;DHT22;24606;51.992;4.198;2022-12-10T17:53:50;17.50;57.50
38854;DHT22;24606;51.992;4.198;2022-12-10T17:58:54;17.70;57.10
38854;DHT22;24606;51.992;4.198;2022-12-10T18:03:56;17.70;57.00
38854;DHT22;24606;51.992;4.198;2022-12-10T18:08:59;17.70;56.90
38854;DHT22;24606;51.992;4.198;2022-12-10T18:14:04;17.70;57.50
38854;DHT22;24606;51.992;4.198;2022-12-10T18:19:11;17.80;57.10
38854;DHT22;24606;51.992;4.198;2022-12-10T18:24:14;17.60;57.70
38854;DHT22;24606;51.992;4.198;2022-12-10T18:29:17;17.50;57.90
38854;DHT22;24606;51.992;4.198;2022-12-10T18:34:19;17.50;58.20
38854;DHT22;24606;51.992;4.198;2022-12-10T18:39:23;17.30;58.50
38854;DHT22;24606;51.992;4.198;2022-12-10T18:44:27;17.20;58.80
38854;DHT22;24606;51.992;4.198;2022-12-10T18:49:29;17.20;58.80
38854;DHT22;24606;51.992;4.198;2022-12-10T18:54:32;17.20;58.70
38854;DHT22;24606;51.992;4.198;2022-12-10T18:59:35;17.20;58.70
38854;DHT22;24606;51.992;4.198;2022-12-10T19:04:37;17.20;58.90
38854;DHT22;24606;51.992;4.198;2022-12-10T19:09:39;17.10;59.00
38854;DHT22;24606;51.992;4.198;2022-12-10T19:14:43;17.20;58.80
38854;DHT22;24606;51.992;4.198;2022-12-10T19:19:45;17.20;58.90
38854;DHT22;24606;51.992;4.198;2022-12-10T19:24:47;17.30;58.60
38854;DHT22;24606;51.992;4.198;2022-12-10T19:29:50;17.50;58.30
38854;DHT22;24606;51.992;4.198;2022-12-10T19:34:52;17.50;58.20
38854;DHT22;24606;51.992;4.198;2022-12-10T19:39:54;17.60;58.20
38854;DHT22;24606;51.992;4.198;2022-12-10T19:44:57;17.60;58.20
38854;DHT22;24606;51.992;4.198;2022-12-10T19:49:59;17.70;58.10
38854;DHT22;24606;51.992;4.198;2022-12-10T19:55:01;17.60;58.10
38854;DHT22;24606;51.992;4.198;2022-12-10T20:00:08;17.70;58.10
38854;DHT22;24606;51.992;4.198;2022-12-10T20:05:13;17.60;58.00
38854;DHT22;24606;51.992;4.198;2022-12-10T20:10:17;17.60;58.30
38854;DHT22;24606;51.992;4.198;2022-12-10T20:15:23;17.60;58.00
38854;DHT22;24606;51.992;4.198;2022-12-10T20:20:27;17.50;58.50
38854;DHT22;24606;51.992;4.198;2022-12-10T20:25:29;17.20;59.20
38854;DHT22;24606;51.992;4.198;2022-12-10T20:30:32;16.90;59.40
38854;DHT22;24606;51.992;4.198;2022-12-10T20:35:34;17.60;58.20
38854;DHT22;24606;51.992;4.198;2022-12-10T20:40:36;17.70;57.60
38854;DHT22;24606;51.992;4.198;2022-12-10T20:45:39;17.40;58.00
38854;DHT22;24606;51.992;4.198;2022-12-10T20:50:42;17.10;59.00
38854;DHT22;24606;51.992;4.198;2022-12-10T20:55:44;17.40;58.00
38854;DHT22;24606;51.992;4.198;2022-12-10T21:00:47;17.50;57.60
38854;DHT22;24606;51.992;4.198;2022-12-10T21:05:49;17.60;57.10
38854;DHT22;24606;51.992;4.198;2022-12-10T21:10:52;16.90;59.20
38854;DHT22;24606;51.992;4.198;2022-12-10T21:16:00;17.50;57.20
38854;DHT22;24606;51.992;4.198;2022-12-10T21:21:02;17.40;57.50
38854;DHT22;24606;51.992;4.198;2022-12-10T21:26:04;17.70;56.70
38854;DHT22;24606;51.992;4.198;2022-12-10T21:31:12;17.70;56.50
38854;DHT22;24606;51.992;4.198;2022-12-10T21:36:16;17.80;56.30
38854;DHT22;24606;51.992;4.198;2022-12-10T21:41:20;17.70;56.30
38854;DHT22;24606;51.992;4.198;2022-12-10T21:46:41;17.70;56.30
38854;DHT22;24606;51.992;4.198;2022-12-10T21:51:43;17.60;56.40
38854;DHT22;24606;51.992;4.198;2022-12-10T21:56:45;17.70;56.40
38854;DHT22;24606;51.992;4.198;2022-12-10T22:01:48;17.60;56.30
38854;DHT22;24606;51.992;4.198;2022-12-10T22:06:51;17.60;56.40
38854;DHT22;24606;51.992;4.198;2022-12-10T22:11:53;17.60;56.40
38854;DHT22;24606;51.992;4.198;2022-12-10T22:16:56;17.50;56.40
38854;DHT22;24606;51.992;4.198;2022-12-10T22:21:58;17.30;56.90
38854;DHT22;24606;51.992;4.198;2022-12-10T22:27:00;17.40;56.70
38854;DHT22;24606;51.992;4.198;2022-12-10T22:32:04;17.40;56.50
38854;DHT22;24606;51.992;4.198;2022-12-10T22:37:06;17.40;56.50
38854;DHT22;24606;51.992;4.198;2022-12-10T22:42:07;17.40;56.60
38854;DHT22;24606;51.992;4.198;2022-12-10T22:47:11;17.40;56.60
38854;DHT22;24606;51.992;4.198;2022-12-10T22:52:12;17.30;56.60
38854;DHT22;24606;51.992;4.198;2022-12-10T22:57:14;17.30;56.50
38854;DHT22;24606;51.992;4.198;2022-12-10T23:02:18;17.20;56.60
38854;DHT22;24606;51.992;4.198;2022-12-10T23:07:20;17.20;57.10
38854;DHT22;24606;51.992;4.198;2022-12-10T23:12:22;17.20;56.40
38854;DHT22;24606;51.992;4.198;2022-12-10T23:17:43;16.80;53.90
38854;DHT22;24606;51.992;4.198;2022-12-10T23:22:45;17.00;56.60
38854;DHT22;24606;51.992;4.198;2022-12-10T23:27:47;17.10;56.60
38854;DHT22;24606;51.992;4.198;2022-12-10T23:32:50;17.10;56.30
38854;DHT22;24606;51.992;4.198;2022-12-10T23:37:52;17.10;56.30
38854;DHT22;24606;51.992;4.198;2022-12-10T23:42:55;16.40;58.10
38854;DHT22;24606;51.992;4.198;2022-12-10T23:47:58;15.90;60.00
38854;DHT22;24606;51.992;4.198;2022-12-10T23:53:00;16.20;59.00
38854;DHT22;24606;51.992;4.198;2022-12-10T23:58:03;15.70;60.50
